Hundvaag 1 weather for Jan 2011
Month no. 283
Obs.
Da.
Temp. Dew Point Precip. Wind
Speed
Wind gusts Cloud cover Press. Humidity Wind dir. Sunny OPT
01.01.2011 2,9 -0,6 0,0 24,1 24,1 8 1011,9 78,0 292,5 1 62,5 %
02.01.2011 -0,8 -3,0 0,0 0,0 0,0 0 1012,9 90,0     52,5 %
03.01.2011 -0,6 -2,9 0,0 0,0 0,0 0 1021,3 84,0     52,5 %
04.01.2011 3,0 1,5 3,6 11,3 8,0 0 1005,8 90,0 157,5   47,5 %
05.01.2011 3,8 2,0 1,0 11,3 12,9 0 1001,4 88,0 135,0   50,0 %
06.01.2011 0,6 -2,3 1,5 20,9 19,3 1 986,1 81,0 90,0   45,0 %
07.01.2011 -0,1 -2,2 0,0 3,2 3,2 8 1001,7 86,0 247,5 1 72,5 %
08.01.2011 0,9 -2,8 0,0 8,0 8,0 1 1006,1 76,0 67,5   52,5 %
09.01.2011 2,7 0,3 0,0 19,3 24,1 3 991,5 84,0 135,0 1 52,5 %
10.01.2011 3,1 1,2 0,0 4,8 4,8 0 1009,8 87,0 157,5   55,0 %
11.01.2011 4,8 3,3 6,1 24,1 19,3 0 1004,1 90,0 135,0   37,5 %
12.01.2011 1,2 -0,7 0,5 0,0 1,6 9 1008,5 87,0   1 77,5 %
13.01.2011 2,1 -0,2 0,5 9,7 9,7 0 1006,1 85,0 90,0   50,0 %
14.01.2011 4,1 1,9 0,0 0,0 0,0 2 1006,4 86,0   1 62,5 %
15.01.2011 3,2 -0,8 0,0 11,3 16,1 0 1007,5 75,0 135,0   50,0 %
16.01.2011 7,5 -2,8 5,6 9,7 8,0 0 554,0 48,0 225,0   55,0 %
17.01.2011 5,9 4,1 0,0 9,7 9,7 0 1011,2 88,0 157,5   55,0 %
18.01.2011 3,5 1,8 0,0 0,0 0,0 0 1018,6 89,0     57,5 %
19.01.2011 2,2 0,9 0,0 4,8 8,0 1 1030,5 91,0 270,0   55,0 %
20.01.2011 -1,2 -2,6 0,0 0,0 0,0 4 1036,6 90,0   1 62,5 %
21.01.2011 4,4 2,7 0,0 1,6 1,6 10 1036,2 89,0 135,0 1 82,5 %
22.01.2011 0,9 1,6 0,0 8,0 4,8 6 1006,1 76,0 67,5 1 65,0 %
23.01.2011 5,5 4,3 0,0 11,3 12,9 7 1031,8 92,0 270,0 1 70,0 %
24.01.2011 4,8 3,6 0,0 8,0 4,8 1 1024,4 92,0 270,0   55,0 %
25.01.2011 1,9 -0,3 0,0 0,0 1,6 10 1009,8 85,0   1 80,0 %
26.01.2011 1,6 -1,5 0,0 0,0 1,6 0 1016,9 80,0     55,0 %
27.01.2011 -1,9 -4,2 0,0 1,6 0,0 10 1026,8 84,0 337,5 1 77,5 %
28.01.2011 -1,3 -3,3 0,0 1,6 1,6 0 1029,1 86,0 45,0   52,5 %
29.01.2011 4,5 1,3 2,0 9,7 8,0 3 1021,7 80,0 247,5 1 60,0 %
30.01.2011 1,4 -0,7 0,0 0,0 0,0 0 1025,7 86,0     55,0 %
31.01.2011 4,1 2,4 2,0 4,8 4,8 1 1019,0 89,0 180,0 1 57,5 %
Avrg/Sum 2,4 0,1 22,8 7,1 7,0 2,7 999,3 84,3 174,9 13 58,5 %